UACC Airport Information

Runway Information
Runway 04 Length 11484 ft width 147 ft
Elevation 1165 ft Threshold 0 ft Heading 45
Runway 22 Length 11484 ft Width 147 ft
Elevation 1158 ft Threshold 0 ft Heading 225
Airport Frequencies
Type APP Name APP Frequency 124.6 MHZ
Type ATIS Name ATIS Frequency 128.3 MHZ
Type RDR Name RADAR Frequency 124.6 MHZ
Type TWR Name TWR Frequency 118.7 MHZ
Airport Navaids
Type NDB Name Astana Frequency 318 KHZ
Type VOR-DME Name Astana Frequency 114200 KHZ
Type NDB Name Astana Frequency 318 KHZ
Airport Weather Information & NOTAM
ADDS - METARS form results

(2254 UTC 17 January 2019)
Data provider http://aviationweather.gov/metar/data/
 
METAR text: UACC 172230Z 17006MPS CAVOK M12/M12 Q1021 R22/35//60 NOSIG RMK QFE734/0979
Conditions at: UACC (ASTANA KAZAKHSTA, KZ) observed 2230 UTC 17 January 2019
Temperature: -12.0°C (10°F)
Dewpoint: -12.0°C (10°F) [RH = 100%]
Pressure (altimeter): 30.15 inches Hg (1021.0 mb)
Winds: from the S (170 degrees) at 14 MPH (12 knots; 6.2 m/s)
Visibility: 6 or more miles (10+ km)
Ceiling: ceiling and visibility are OK
Clouds: unknown
Weather: no significant weather observed at this time

METAR text: UACC 172200Z 18005MPS CAVOK M11/M12 Q1022 R22/35//60 NOSIG RMK QFE735/0980
Conditions at: UACC (ASTANA KAZAKHSTA, KZ) observed 2200 UTC 17 January 2019
Temperature: -11.0°C (12°F)
Dewpoint: -12.0°C (10°F) [RH = 92%]
Pressure (altimeter): 30.18 inches Hg (1022.0 mb)
Winds: from the S (180 degrees) at 12 MPH (10 knots; 5.1 m/s)
Visibility: 6 or more miles (10+ km)
Ceiling: ceiling and visibility are OK
Clouds: unknown
Weather: no significant weather observed at this time

Forecast for: COR
Text: TAF COR UACC 171700Z 1718/1818 16006MPS 9999 SCT010 BKN100 TXM07/1810Z TNM17/1802Z
Forecast period: 1800 UTC 17 January 2019 to 1800 UTC 18 January 2019
Forecast type: FROM: standard forecast or significant change
Winds: from the SSE (160 degrees) at 14 MPH (12 knots; 6.2 m/s)
Visibility: 6 or more miles 10+ km)
Ceiling: 10000 feet AGL
Clouds: scattered clouds at 1000 feet AGL
broken clouds at 10000 feet AGL
Weather: no significant weather forecast for this period
Text: TEMPO 1718/1805 3000 BR SCT004
Forecast period: 1800 UTC 17 January 2019 to 0500 UTC 18 January 2019
Forecast type: TEMPORARY: The following changes expected for less than half the time period
Visibility: 1.86 miles (2.99 km)
Ceiling: at least 12,000 feet AGL
Clouds: scattered clouds at 400 feet AGL
Weather: BR  (mist)
Text: TEMPO 1814/1818 3000 BR SCT004
Forecast period: 1400 to 1800 UTC 18 January 2019
Forecast type: TEMPORARY: The following changes expected for less than half the time period
Visibility: 1.86 miles (2.99 km)
Ceiling: at least 12,000 feet AGL
Clouds: scattered clouds at 400 feet AGL
Weather: BR  (mist)